createdAt,value
2019-01-09T00:01:16.523Z,5.73
2019-01-09T00:03:43.728Z,5.82
2019-01-09T00:06:11.056Z,5.92
2019-01-09T00:08:38.295Z,6.00
2019-01-09T00:11:05.505Z,6.09
2019-01-09T00:13:32.729Z,6.22
2019-01-09T00:15:59.968Z,6.22
2019-01-09T00:18:27.685Z,6.27
2019-01-09T00:20:54.932Z,6.22
2019-01-09T00:23:22.168Z,6.27
2019-01-09T00:25:49.410Z,6.22
2019-01-09T00:28:16.663Z,6.19
2019-01-09T00:30:44.024Z,6.24
2019-01-09T00:33:11.219Z,6.16
2019-01-09T00:35:38.774Z,6.19
2019-01-09T00:38:08.889Z,6.22
2019-01-09T00:40:36.103Z,6.31
2019-01-09T00:43:04.573Z,6.32
2019-01-09T00:45:31.838Z,6.35
2019-01-09T00:47:59.053Z,6.41
2019-01-09T00:50:26.385Z,6.43
2019-01-09T00:52:53.640Z,6.44
2019-01-09T00:55:21.029Z,6.45
2019-01-09T00:57:48.326Z,6.56
2019-01-09T01:00:17.109Z,6.48
2019-01-09T01:02:57.087Z,6.49
2019-01-09T01:06:18.016Z,6.49
2019-01-09T01:09:39.568Z,6.53
2019-01-09T01:12:54.532Z,6.52
2019-01-09T01:15:58.477Z,6.57
2019-01-09T01:19:03.926Z,6.55
2019-01-09T01:21:58.736Z,6.50
2019-01-09T01:24:58.063Z,6.54
2019-01-09T01:27:54.636Z,6.58
2019-01-09T01:30:58.558Z,6.56
2019-01-09T01:33:49.334Z,6.52
2019-01-09T01:37:02.116Z,6.55
2019-01-09T01:39:52.745Z,6.64
2019-01-09T01:42:37.958Z,6.54
2019-01-09T01:45:28.696Z,6.56
2019-01-09T01:48:21.320Z,6.57
2019-01-09T01:51:23.226Z,6.55
2019-01-09T01:54:32.005Z,6.55
2019-01-09T01:57:32.010Z,6.50
2019-01-09T02:00:34.843Z,6.54
2019-01-09T02:03:29.493Z,6.56
2019-01-09T02:06:27.170Z,6.62
2019-01-09T02:09:37.798Z,6.66
2019-01-09T02:12:56.133Z,6.75
2019-01-09T02:16:08.555Z,6.72
2019-01-09T02:19:02.231Z,6.71
2019-01-09T02:21:47.907Z,6.73
2019-01-09T02:24:59.179Z,6.71
2019-01-09T02:27:44.423Z,6.69
2019-01-09T02:30:53.244Z,6.67
2019-01-09T02:33:20.548Z,6.64
2019-01-09T02:35:48.342Z,6.44
2019-01-09T02:38:15.592Z,6.29
2019-01-09T02:40:42.917Z,6.23
2019-01-09T02:43:10.129Z,6.31
2019-01-09T02:45:37.350Z,6.18
2019-01-09T02:48:04.698Z,6.10
2019-01-09T02:50:31.932Z,6.14
2019-01-09T02:52:59.187Z,6.09
2019-01-09T02:55:26.420Z,5.89
2019-01-09T02:57:56.898Z,5.81
2019-01-09T03:00:23.077Z,5.88
2019-01-09T03:02:50.303Z,5.99
2019-01-09T03:05:17.623Z,6.12
2019-01-09T03:07:44.837Z,6.12
2019-01-09T03:10:12.464Z,6.11
2019-01-09T03:12:39.757Z,6.18
2019-01-09T03:15:07.314Z,6.16
2019-01-09T03:17:34.510Z,6.20
2019-01-09T03:20:02.689Z,6.26
2019-01-09T03:22:32.014Z,6.28
2019-01-09T03:24:59.245Z,6.34
2019-01-09T03:27:26.499Z,6.36
2019-01-09T03:29:53.773Z,6.37
2019-01-09T03:32:21.041Z,6.39
2019-01-09T03:34:48.313Z,6.35
2019-01-09T03:37:15.527Z,6.34
2019-01-09T03:39:42.966Z,6.40
2019-01-09T03:42:10.208Z,6.26
2019-01-09T03:44:37.484Z,6.28
2019-01-09T03:47:04.709Z,6.27
2019-01-09T03:49:32.065Z,6.26
2019-01-09T03:51:59.492Z,6.25
2019-01-09T03:54:26.808Z,6.22
2019-01-09T03:56:54.328Z,6.27
2019-01-09T03:59:21.568Z,6.29
2019-01-09T04:01:48.985Z,6.26
2019-01-09T04:04:16.221Z,6.28
2019-01-09T04:06:43.455Z,6.25
2019-01-09T04:09:10.707Z,6.31
2019-01-09T04:11:37.979Z,6.36
2019-01-09T04:14:05.205Z,6.26
2019-01-09T04:16:32.435Z,6.21
2019-01-09T04:18:59.674Z,6.18
2019-01-09T04:21:27.077Z,6.16
2019-01-09T04:23:54.355Z,5.97
2019-01-09T04:26:21.551Z,5.99
2019-01-09T04:28:48.831Z,5.92
2019-01-09T04:31:16.065Z,5.93
2019-01-09T04:33:43.329Z,5.92
2019-01-09T04:36:10.535Z,5.88
2019-01-09T04:38:37.787Z,5.91
2019-01-09T04:41:05.126Z,5.91
2019-01-09T04:43:32.448Z,5.98
2019-01-09T04:45:59.699Z,6.00
2019-01-09T04:48:26.902Z,6.00
2019-01-09T04:50:54.124Z,5.95
2019-01-09T04:53:21.399Z,5.98
2019-01-09T04:55:48.586Z,6.01
2019-01-09T04:58:16.141Z,6.05
2019-01-09T05:00:43.374Z,6.13
2019-01-09T05:03:10.591Z,6.14
2019-01-09T05:05:37.797Z,6.11
2019-01-09T05:08:05.148Z,6.14
2019-01-09T05:10:32.405Z,6.10
2019-01-09T05:12:59.615Z,6.05
2019-01-09T05:15:26.878Z,6.19
2019-01-09T05:17:54.120Z,6.16
2019-01-09T05:20:21.387Z,6.04
2019-01-09T05:22:48.584Z,6.08
2019-01-09T05:25:15.825Z,6.06
2019-01-09T05:27:43.119Z,6.09
2019-01-09T05:30:10.346Z,6.08
2019-01-09T05:32:37.928Z,6.13
2019-01-09T05:35:05.145Z,6.14
2019-01-09T05:37:32.377Z,6.14
2019-01-09T05:39:59.621Z,6.23
2019-01-09T05:42:26.872Z,6.17
2019-01-09T05:44:57.774Z,6.21
2019-01-09T05:47:25.241Z,6.19
2019-01-09T05:49:52.481Z,6.13
2019-01-09T05:52:19.776Z,6.11
2019-01-09T05:54:47.028Z,6.07
2019-01-09T05:57:14.264Z,6.06
2019-01-09T05:59:41.499Z,6.02
2019-01-09T06:02:08.720Z,6.00
2019-01-09T06:04:35.943Z,5.94
2019-01-09T06:07:03.219Z,5.98
2019-01-09T06:09:30.479Z,5.92
2019-01-09T06:11:57.682Z,5.95
2019-01-09T06:14:24.924Z,5.91
2019-01-09T06:16:52.155Z,5.88
2019-01-09T06:19:19.818Z,5.83
2019-01-09T06:21:48.228Z,5.82
2019-01-09T06:24:15.454Z,5.78
2019-01-09T06:26:42.812Z,5.74
2019-01-09T06:29:10.056Z,5.83
2019-01-09T06:31:37.341Z,5.75
2019-01-09T06:34:04.647Z,5.70
2019-01-09T06:36:31.887Z,5.77
2019-01-09T06:38:59.129Z,5.79
2019-01-09T06:41:26.339Z,5.67
2019-01-09T06:43:53.568Z,5.72
2019-01-09T06:46:20.801Z,5.74
2019-01-09T06:49:07.819Z,5.72
2019-01-09T06:51:36.970Z,5.71
2019-01-09T06:54:04.256Z,5.81
2019-01-09T06:56:31.429Z,5.77
2019-01-09T06:58:58.701Z,5.75
2019-01-09T07:01:25.905Z,5.70
2019-01-09T07:03:53.249Z,5.70
2019-01-09T07:06:20.801Z,5.69
2019-01-09T07:08:48.042Z,5.75
2019-01-09T07:11:15.259Z,5.69
2019-01-09T07:13:42.627Z,5.73
2019-01-09T07:16:09.875Z,5.69
2019-01-09T07:18:37.216Z,5.72
2019-01-09T07:21:04.682Z,5.75
2019-01-09T07:23:31.906Z,5.75
2019-01-09T07:25:59.156Z,5.70
2019-01-09T07:28:26.403Z,5.74
2019-01-09T07:30:54.031Z,5.75
2019-01-09T07:33:21.355Z,5.71
2019-01-09T07:35:48.605Z,5.78
2019-01-09T07:38:15.845Z,5.79
2019-01-09T07:40:43.070Z,5.71
2019-01-09T07:43:10.342Z,5.73
2019-01-09T07:45:38.046Z,5.73
2019-01-09T07:48:05.449Z,5.73
2019-01-09T07:50:32.772Z,5.69
2019-01-09T07:53:00.072Z,5.68
2019-01-09T07:55:27.695Z,5.68
2019-01-09T07:57:54.926Z,5.64
2019-01-09T08:00:22.204Z,5.67
2019-01-09T08:02:49.711Z,5.73
2019-01-09T08:05:16.967Z,5.70
2019-01-09T08:07:44.226Z,5.69
2019-01-09T08:10:11.470Z,5.71
2019-01-09T08:12:38.744Z,5.73
2019-01-09T08:15:07.111Z,5.76
2019-01-09T08:17:34.345Z,5.85
2019-01-09T08:20:01.571Z,5.80
2019-01-09T08:22:29.824Z,5.85
2019-01-09T08:24:58.006Z,5.86
2019-01-09T08:27:25.329Z,5.85
2019-01-09T08:29:52.549Z,5.76
2019-01-09T08:32:19.841Z,5.84
2019-01-09T08:34:47.116Z,5.80
2019-01-09T08:37:14.469Z,5.88
2019-01-09T08:39:41.686Z,5.92
2019-01-09T08:42:09.081Z,6.03
2019-01-09T08:44:36.359Z,6.07
2019-01-09T08:47:03.663Z,6.05
2019-01-09T08:49:30.975Z,6.02
2019-01-09T08:51:58.213Z,6.08
2019-01-09T08:54:25.446Z,6.09
2019-01-09T08:56:52.696Z,6.09
2019-01-09T08:59:19.918Z,6.24
2019-01-09T09:01:47.140Z,6.28
2019-01-09T09:04:14.389Z,6.28
2019-01-09T09:06:41.635Z,6.36
2019-01-09T09:09:08.970Z,6.34
2019-01-09T09:11:36.208Z,6.47
2019-01-09T09:14:05.039Z,6.48
2019-01-09T09:16:36.701Z,6.59
2019-01-09T09:19:04.607Z,6.62
2019-01-09T09:21:32.061Z,6.70
2019-01-09T09:24:00.758Z,6.67
2019-01-09T09:26:28.071Z,6.59
2019-01-09T09:28:55.313Z,6.64
2019-01-09T09:31:22.563Z,6.57
2019-01-09T09:33:49.976Z,6.59
2019-01-09T09:36:17.393Z,6.61
2019-01-09T09:38:49.735Z,6.61
2019-01-09T09:41:18.964Z,6.65
2019-01-09T09:43:46.262Z,6.59
2019-01-09T09:46:13.491Z,6.62
2019-01-09T09:48:40.697Z,6.63
2019-01-09T09:51:07.982Z,6.63
2019-01-09T09:53:35.602Z,6.68
2019-01-09T09:56:02.854Z,6.66
2019-01-09T09:58:30.132Z,6.74
2019-01-09T10:00:57.346Z,6.70
2019-01-09T10:03:24.579Z,6.71
2019-01-09T10:05:51.828Z,6.83
2019-01-09T10:08:19.129Z,6.86
2019-01-09T10:10:47.077Z,6.94
2019-01-09T10:13:14.360Z,6.88
2019-01-09T10:15:41.565Z,6.91
2019-01-09T10:18:08.856Z,6.88
2019-01-09T10:20:36.102Z,6.91
2019-01-09T10:23:03.843Z,6.91
2019-01-09T10:25:31.102Z,6.86
2019-01-09T10:28:02.649Z,6.78
2019-01-09T10:30:30.351Z,6.78
2019-01-09T10:32:57.705Z,6.79
2019-01-09T10:35:24.988Z,6.72
2019-01-09T10:37:52.237Z,6.65
2019-01-09T10:40:19.823Z,6.64
2019-01-09T10:42:50.817Z,6.72
2019-01-09T10:45:19.776Z,6.80
2019-01-09T10:47:47.031Z,6.79
2019-01-09T10:50:15.164Z,6.74
2019-01-09T10:52:42.389Z,6.81
2019-01-09T10:55:10.644Z,6.77
2019-01-09T10:57:37.921Z,6.77
2019-01-09T11:00:08.345Z,6.80
2019-01-09T11:02:35.625Z,6.72
2019-01-09T11:05:03.821Z,6.72
2019-01-09T11:07:33.409Z,6.74
2019-01-09T11:10:00.681Z,6.79
2019-01-09T11:12:28.054Z,6.64
2019-01-09T11:14:55.541Z,6.65
2019-01-09T11:17:22.850Z,6.70
2019-01-09T11:19:50.205Z,6.58
2019-01-09T11:22:17.433Z,6.50
2019-01-09T11:24:44.763Z,6.46
2019-01-09T11:27:11.995Z,6.53
2019-01-09T11:29:39.443Z,6.55
2019-01-09T11:32:06.874Z,6.59
2019-01-09T11:34:34.227Z,6.59
2019-01-09T11:37:01.583Z,6.59
2019-01-09T11:39:28.840Z,6.51
2019-01-09T11:41:56.085Z,6.53
2019-01-09T11:44:23.603Z,6.61
2019-01-09T11:46:50.861Z,6.61
2019-01-09T11:49:18.087Z,6.65
2019-01-09T11:51:45.455Z,6.49
2019-01-09T11:54:12.714Z,6.52
2019-01-09T11:56:39.995Z,6.43
2019-01-09T11:59:07.269Z,6.48
2019-01-09T12:01:34.485Z,6.46
2019-01-09T12:04:01.777Z,6.43
2019-01-09T12:06:30.495Z,6.44
2019-01-09T12:09:04.430Z,6.56
2019-01-09T12:11:26.876Z,6.59
2019-01-09T12:13:54.116Z,6.57
2019-01-09T12:16:21.329Z,6.58
2019-01-09T12:18:48.626Z,6.58
2019-01-09T12:21:16.903Z,6.61
2019-01-09T12:23:44.364Z,6.63
2019-01-09T12:26:11.722Z,6.60
2019-01-09T12:28:38.965Z,6.65
2019-01-09T12:31:06.242Z,6.69
2019-01-09T12:33:33.594Z,6.77
2019-01-09T12:36:00.964Z,6.73
2019-01-09T12:38:28.233Z,6.73
2019-01-09T12:40:56.869Z,6.72
2019-01-09T12:43:24.164Z,6.71
2019-01-09T12:45:51.488Z,6.59
2019-01-09T12:48:18.917Z,6.59
2019-01-09T12:50:46.219Z,6.58
2019-01-09T12:53:13.663Z,6.59
2019-01-09T12:55:40.908Z,6.47
2019-01-09T12:58:08.185Z,6.62
2019-01-09T13:00:35.429Z,6.49
2019-01-09T13:03:05.701Z,6.34
2019-01-09T13:05:33.011Z,6.35
2019-01-09T13:08:00.252Z,6.24
2019-01-09T13:10:27.498Z,6.35
2019-01-09T13:12:54.903Z,6.41
2019-01-09T13:15:22.163Z,6.39
2019-01-09T13:17:49.463Z,6.35
2019-01-09T13:20:17.283Z,6.34
2019-01-09T13:22:44.628Z,6.36
2019-01-09T13:25:12.865Z,6.32
2019-01-09T13:27:40.196Z,6.26
2019-01-09T13:30:13.347Z,6.24
2019-01-09T13:32:40.736Z,6.28
2019-01-09T13:35:08.315Z,6.32
2019-01-09T13:37:35.655Z,6.31
2019-01-09T13:40:04.081Z,6.21
2019-01-09T13:42:31.393Z,6.09
2019-01-09T13:44:58.714Z,6.10
2019-01-09T13:47:25.990Z,6.09
2019-01-09T13:49:53.243Z,6.10
2019-01-09T13:52:20.466Z,6.12
2019-01-09T13:54:47.704Z,6.06
2019-01-09T13:57:15.010Z,6.10
2019-01-09T13:59:42.289Z,6.16
2019-01-09T14:02:09.524Z,6.15
2019-01-09T14:04:36.798Z,6.14
2019-01-09T14:07:04.252Z,6.12
2019-01-09T14:09:39.218Z,6.08
2019-01-09T14:12:00.591Z,6.08
2019-01-09T14:14:27.992Z,6.09
2019-01-09T14:16:55.261Z,6.04
2019-01-09T14:19:22.550Z,5.98
2019-01-09T14:21:49.782Z,5.98
2019-01-09T14:24:17.038Z,5.95
2019-01-09T14:26:44.361Z,5.99
2019-01-09T14:29:11.605Z,6.04
2019-01-09T14:31:38.943Z,5.96
2019-01-09T14:34:06.281Z,5.98
2019-01-09T14:36:33.574Z,5.98
2019-01-09T14:39:00.839Z,5.95
2019-01-09T14:41:28.170Z,6.02
2019-01-09T14:43:55.409Z,6.10
2019-01-09T14:46:22.826Z,5.98
2019-01-09T14:48:50.099Z,5.98
2019-01-09T14:51:17.365Z,6.06
2019-01-09T14:53:44.692Z,5.96
2019-01-09T14:56:11.932Z,5.99
2019-01-09T14:58:39.197Z,5.91
2019-01-09T15:01:06.478Z,5.89
2019-01-09T15:03:33.737Z,5.88
2019-01-09T15:06:01.054Z,5.85
2019-01-09T15:08:28.345Z,5.83
2019-01-09T15:10:55.662Z,5.82
2019-01-09T15:13:22.947Z,5.78
2019-01-09T15:15:50.204Z,5.70
2019-01-09T15:18:20.235Z,5.70
2019-01-09T15:20:47.454Z,5.68
2019-01-09T15:23:15.380Z,5.57
2019-01-09T15:25:42.627Z,5.54
2019-01-09T15:28:09.974Z,5.54
2019-01-09T15:30:40.251Z,5.50
2019-01-09T15:33:07.514Z,5.53
2019-01-09T15:35:35.070Z,5.53
2019-01-09T15:38:02.977Z,5.57
2019-01-09T15:40:37.980Z,5.56
2019-01-09T15:43:05.858Z,5.58
2019-01-09T15:45:33.069Z,5.55
2019-01-09T15:48:00.337Z,5.60
2019-01-09T15:50:31.408Z,5.58
2019-01-09T15:52:58.980Z,5.60
2019-01-09T15:55:26.230Z,5.59
2019-01-09T15:57:54.015Z,5.66
2019-01-09T16:00:24.063Z,5.58
2019-01-09T16:02:52.815Z,5.63
2019-01-09T16:05:20.148Z,5.57
2019-01-09T16:07:47.624Z,5.60
2019-01-09T16:10:15.535Z,5.56
2019-01-09T16:12:43.206Z,5.57
2019-01-09T16:15:12.404Z,5.58
2019-01-09T16:17:39.699Z,5.60
2019-01-09T16:20:16.312Z,5.56
2019-01-09T16:22:37.433Z,5.53
2019-01-09T16:25:05.793Z,5.52
2019-01-09T16:27:33.032Z,5.57
2019-01-09T16:30:00.798Z,5.49
2019-01-09T16:32:28.145Z,5.51
2019-01-09T16:34:55.448Z,5.54
2019-01-09T16:37:22.698Z,5.50
2019-01-09T16:39:49.926Z,5.43
2019-01-09T16:42:17.235Z,5.58
2019-01-09T16:44:45.513Z,5.49
2019-01-09T16:47:12.776Z,5.55
2019-01-09T16:49:40.318Z,5.49
2019-01-09T16:52:08.955Z,5.50
2019-01-09T16:54:36.227Z,5.48
2019-01-09T16:57:03.798Z,5.42
2019-01-09T16:59:31.124Z,5.37
2019-01-09T17:01:58.356Z,5.37
2019-01-09T17:04:25.926Z,5.33
2019-01-09T17:06:53.214Z,5.30
2019-01-09T17:09:20.509Z,5.28
2019-01-09T17:11:47.909Z,5.23
2019-01-09T17:14:15.222Z,5.21
2019-01-09T17:16:43.063Z,5.17
2019-01-09T17:19:10.458Z,5.17
2019-01-09T17:21:37.763Z,5.19
2019-01-09T17:24:04.996Z,5.13
2019-01-09T17:26:32.216Z,5.12
2019-01-09T17:28:59.469Z,5.17
2019-01-09T17:31:27.041Z,5.13
2019-01-09T17:33:54.271Z,5.09
2019-01-09T17:36:22.429Z,5.10
2019-01-09T17:38:49.682Z,5.10
2019-01-09T17:41:16.892Z,5.08
2019-01-09T17:43:44.144Z,5.09
2019-01-09T17:46:12.069Z,5.10
2019-01-09T17:48:39.313Z,5.04
2019-01-09T17:51:06.623Z,5.09
2019-01-09T17:53:33.859Z,5.04
2019-01-09T17:56:01.125Z,5.00
2019-01-09T17:58:28.809Z,5.02
2019-01-09T18:00:56.191Z,5.03
2019-01-09T18:03:23.801Z,4.99
2019-01-09T18:05:52.816Z,4.95
2019-01-09T18:08:22.268Z,4.99
2019-01-09T18:10:50.669Z,5.01
2019-01-09T18:13:18.031Z,4.99
2019-01-09T18:15:45.799Z,4.95
2019-01-09T18:18:13.053Z,4.96
2019-01-09T18:20:40.693Z,4.96
2019-01-09T18:23:08.073Z,4.97
2019-01-09T18:25:35.375Z,4.98
2019-01-09T18:28:02.623Z,5.01
2019-01-09T18:30:36.362Z,5.03
2019-01-09T18:33:06.773Z,5.05
2019-01-09T18:36:22.053Z,5.07
2019-01-09T18:38:57.908Z,5.03
2019-01-09T18:42:18.571Z,5.01
2019-01-09T18:45:36.736Z,5.03
2019-01-09T18:48:47.134Z,5.03
2019-01-09T18:51:47.758Z,5.06
2019-01-09T18:54:15.034Z,5.12
2019-01-09T18:56:42.308Z,5.11
2019-01-09T18:59:09.898Z,5.17
2019-01-09T19:01:37.186Z,5.15
2019-01-09T19:04:04.456Z,5.09
2019-01-09T19:06:35.446Z,5.13
2019-01-09T19:09:00.939Z,5.13
2019-01-09T19:11:28.221Z,5.09
2019-01-09T19:13:55.530Z,5.12
2019-01-09T19:16:22.757Z,5.13
2019-01-09T19:18:50.060Z,5.17
2019-01-09T19:21:17.422Z,5.16
2019-01-09T19:23:44.797Z,5.17
2019-01-09T19:26:12.452Z,5.10
2019-01-09T19:28:39.702Z,5.16
2019-01-09T19:31:07.145Z,5.16
2019-01-09T19:33:34.545Z,5.09
2019-01-09T19:36:01.837Z,5.07
2019-01-09T19:38:29.048Z,5.07
2019-01-09T19:40:56.348Z,5.03
2019-01-09T19:43:24.886Z,5.08
2019-01-09T19:45:52.419Z,5.10
2019-01-09T19:48:19.662Z,5.12
2019-01-09T19:50:46.971Z,5.12
2019-01-09T19:53:16.281Z,5.05
2019-01-09T19:55:43.652Z,5.07
2019-01-09T19:58:10.975Z,5.09
2019-01-09T20:00:38.325Z,5.07
2019-01-09T20:03:05.651Z,5.13
2019-01-09T20:05:35.709Z,5.08
2019-01-09T20:08:03.255Z,5.05
2019-01-09T20:10:30.783Z,5.07
2019-01-09T20:12:58.080Z,5.08
2019-01-09T20:15:25.321Z,5.08
2019-01-09T20:17:52.645Z,5.11
2019-01-09T20:20:20.420Z,5.02
2019-01-09T20:22:49.126Z,5.04
2019-01-09T20:25:16.646Z,5.03
2019-01-09T20:27:43.893Z,4.97
2019-01-09T20:30:15.332Z,5.07
2019-01-09T20:32:42.801Z,4.97
2019-01-09T20:35:10.906Z,4.96
2019-01-09T20:37:38.420Z,4.93
2019-01-09T20:40:07.581Z,4.93
2019-01-09T20:42:34.828Z,4.95
2019-01-09T20:45:02.183Z,4.93
2019-01-09T20:47:30.805Z,4.93
2019-01-09T20:49:58.512Z,4.94
2019-01-09T20:52:27.062Z,4.92
2019-01-09T20:54:54.390Z,4.95
2019-01-09T20:57:21.740Z,4.96
2019-01-09T20:59:49.120Z,4.88
2019-01-09T21:02:16.435Z,4.91
2019-01-09T21:04:47.297Z,4.89
2019-01-09T21:07:14.729Z,4.92
2019-01-09T21:09:42.065Z,4.91
2019-01-09T21:12:09.586Z,4.96
2019-01-09T21:14:37.022Z,4.91
2019-01-09T21:17:04.338Z,4.88
2019-01-09T21:19:31.615Z,4.93
2019-01-09T21:21:58.897Z,4.94
2019-01-09T21:24:26.206Z,4.95
2019-01-09T21:26:53.427Z,4.95
2019-01-09T21:29:20.769Z,4.98
2019-01-09T21:31:48.072Z,4.92
2019-01-09T21:34:15.473Z,4.94
2019-01-09T21:36:42.766Z,4.89
2019-01-09T21:39:10.156Z,4.89
2019-01-09T21:41:37.397Z,4.88
2019-01-09T21:44:04.789Z,4.85
2019-01-09T21:46:33.451Z,4.81
2019-01-09T21:49:00.828Z,4.86
2019-01-09T21:51:30.645Z,4.87
2019-01-09T21:53:57.949Z,4.83
2019-01-09T21:56:25.174Z,4.84
2019-01-09T21:58:52.420Z,4.92
2019-01-09T22:01:19.910Z,4.86
2019-01-09T22:03:47.479Z,4.88
2019-01-09T22:06:14.845Z,4.93
2019-01-09T22:08:42.203Z,4.88
2019-01-09T22:11:09.557Z,4.85
2019-01-09T22:13:36.873Z,4.86
2019-01-09T22:16:04.366Z,4.86
2019-01-09T22:18:32.151Z,4.87
2019-01-09T22:20:59.366Z,4.85
2019-01-09T22:23:26.623Z,4.87
2019-01-09T22:25:54.021Z,4.85
2019-01-09T22:28:21.315Z,4.92
2019-01-09T22:30:48.572Z,4.89
2019-01-09T22:33:16.074Z,4.81
2019-01-09T22:35:43.468Z,4.86
2019-01-09T22:38:10.824Z,4.85
2019-01-09T22:40:38.066Z,4.76
2019-01-09T22:43:05.373Z,4.75
2019-01-09T22:45:32.607Z,4.80
2019-01-09T22:47:59.863Z,4.78
2019-01-09T22:50:27.407Z,4.82
2019-01-09T22:52:56.723Z,4.77
2019-01-09T22:55:23.972Z,4.77
2019-01-09T22:57:51.241Z,4.74
2019-01-09T23:01:01.576Z,4.72
2019-01-09T23:03:29.813Z,4.70
2019-01-09T23:05:57.036Z,4.64
2019-01-09T23:08:24.276Z,4.60
2019-01-09T23:10:54.734Z,4.61
2019-01-09T23:13:22.815Z,4.60
2019-01-09T23:15:50.528Z,4.59
2019-01-09T23:18:17.989Z,4.60
2019-01-09T23:20:45.215Z,4.58
2019-01-09T23:23:12.467Z,4.57
2019-01-09T23:25:42.645Z,4.64
2019-01-09T23:28:10.010Z,4.67
2019-01-09T23:30:37.356Z,4.63
2019-01-09T23:33:04.900Z,4.71
2019-01-09T23:35:32.285Z,4.76
2019-01-09T23:37:59.531Z,4.67
2019-01-09T23:40:30.294Z,4.61
2019-01-09T23:42:58.115Z,4.60
2019-01-09T23:45:25.453Z,4.50
2019-01-09T23:47:54.815Z,4.42
2019-01-09T23:50:24.467Z,4.43
2019-01-09T23:52:51.704Z,4.49
2019-01-09T23:55:22.495Z,4.48
2019-01-09T23:57:50.084Z,4.59
